createdAt,value
2023-03-20T00:01:17.900Z,98297.13
2023-03-20T00:04:03.542Z,98165.88
2023-03-20T00:06:49.026Z,98329.28
2023-03-20T00:09:34.397Z,98132.69
2023-03-20T00:12:25.331Z,98331.16
2023-03-20T00:15:26.071Z,98337.41
2023-03-20T00:18:18.417Z,98330.97
2023-03-20T00:21:04.423Z,98326.91
2023-03-20T00:23:49.680Z,98320.28
2023-03-20T00:26:54.410Z,98120.97
2023-03-20T00:29:39.744Z,98102.06
2023-03-20T00:32:26.571Z,98303.09
2023-03-20T00:35:28.693Z,98310.09
2023-03-20T00:38:14.238Z,98220.63
2023-03-20T00:40:59.980Z,98311.97
2023-03-20T00:43:50.776Z,98288.78
2023-03-20T00:46:39.636Z,98327.00
2023-03-20T00:49:28.393Z,98257.81
2023-03-20T00:52:14.870Z,98188.81
2023-03-20T00:55:00.309Z,98102.19
2023-03-20T00:57:52.353Z,98097.97
2023-03-20T01:00:41.274Z,98290.84
2023-03-20T01:03:27.747Z,98128.69
2023-03-20T01:06:13.086Z,98249.78
2023-03-20T01:08:58.660Z,98283.66
2023-03-20T01:11:45.837Z,98287.66
2023-03-20T01:14:31.362Z,98276.66
2023-03-20T01:17:23.200Z,98284.34
2023-03-20T01:20:29.663Z,98117.97
2023-03-20T01:23:15.997Z,98099.50
2023-03-20T01:26:01.590Z,98270.97
2023-03-20T01:28:47.572Z,98268.34
2023-03-20T01:31:33.280Z,98267.56
2023-03-20T01:34:20.888Z,98277.00
2023-03-20T01:37:13.151Z,98276.25
2023-03-20T01:39:58.974Z,98265.78
2023-03-20T01:42:45.841Z,98107.81
2023-03-20T01:45:36.057Z,98242.91
2023-03-20T01:48:25.436Z,98270.91
2023-03-20T01:51:11.081Z,98263.53
2023-03-20T01:54:07.461Z,98245.25
2023-03-20T01:57:17.254Z,98088.28
2023-03-20T02:00:16.713Z,98234.94
2023-03-20T02:03:03.291Z,98256.56
2023-03-20T02:06:09.327Z,98249.50
2023-03-20T02:09:13.532Z,98272.59
2023-03-20T02:12:02.736Z,98261.75
2023-03-20T02:14:50.657Z,98070.06
2023-03-20T02:17:43.806Z,98281.06
2023-03-20T02:20:49.472Z,98253.38
2023-03-20T02:24:13.470Z,98248.97
2023-03-20T02:27:30.288Z,98254.72
2023-03-20T02:31:01.314Z,98264.75
2023-03-20T02:34:14.941Z,98259.09
2023-03-20T02:37:22.196Z,98259.81
2023-03-20T02:40:26.011Z,98258.34
2023-03-20T02:43:17.300Z,98257.19
2023-03-20T02:46:28.879Z,98252.69
2023-03-20T02:49:41.399Z,98256.22
2023-03-20T02:52:39.282Z,98250.25
2023-03-20T02:55:51.414Z,98254.88
2023-03-20T02:58:54.686Z,98053.63
2023-03-20T03:01:46.574Z,98241.25
2023-03-20T03:04:38.265Z,98225.28
2023-03-20T03:07:28.336Z,98242.13
2023-03-20T03:10:22.684Z,98207.38
2023-03-20T03:13:14.031Z,98245.00
2023-03-20T03:16:09.506Z,98263.69
2023-03-20T03:19:12.818Z,98190.94
2023-03-20T03:21:59.372Z,98227.16
2023-03-20T03:24:47.733Z,98032.56
2023-03-20T03:27:51.866Z,98224.81
2023-03-20T03:30:39.780Z,98199.53
2023-03-20T03:33:29.889Z,98237.81
2023-03-20T03:36:33.475Z,98229.78
2023-03-20T03:39:42.284Z,98072.78
2023-03-20T03:42:50.807Z,98063.72
2023-03-20T03:45:44.579Z,98228.66
2023-03-20T03:48:37.767Z,98181.84
2023-03-20T03:51:28.044Z,98227.22
2023-03-20T03:54:42.183Z,98177.34
2023-03-20T03:57:52.540Z,98181.84
2023-03-20T04:00:42.576Z,98232.00
2023-03-20T04:03:35.429Z,98230.53
2023-03-20T04:06:21.245Z,98070.91
2023-03-20T04:09:09.585Z,98089.00
2023-03-20T04:11:55.003Z,98227.34
2023-03-20T04:14:40.554Z,98026.28
2023-03-20T04:17:26.429Z,98224.44
2023-03-20T04:20:13.142Z,98218.13
2023-03-20T04:22:59.017Z,98209.38
2023-03-20T04:25:45.662Z,98239.13
2023-03-20T04:28:31.173Z,98185.56
2023-03-20T04:31:35.815Z,98208.97
2023-03-20T04:34:49.896Z,98193.03
2023-03-20T04:37:55.297Z,98246.38
2023-03-20T04:40:41.517Z,98254.38
2023-03-20T04:43:27.464Z,98230.34
2023-03-20T04:46:13.209Z,98231.81
2023-03-20T04:48:59.766Z,98232.78
2023-03-20T04:51:48.318Z,98031.31
2023-03-20T04:54:37.764Z,98053.22
2023-03-20T04:57:23.419Z,98224.31
2023-03-20T05:00:12.503Z,98221.34
2023-03-20T05:02:58.444Z,98239.38
2023-03-20T05:05:44.128Z,98239.03
2023-03-20T05:08:30.010Z,98248.88
2023-03-20T05:11:18.962Z,98036.47
2023-03-20T05:14:29.084Z,98240.41
2023-03-20T05:17:48.550Z,98206.44
2023-03-20T05:20:50.985Z,98239.22
2023-03-20T05:23:53.719Z,98221.44
2023-03-20T05:26:48.473Z,98226.47
2023-03-20T05:29:34.139Z,98054.66
2023-03-20T05:32:39.023Z,98230.28
2023-03-20T05:35:29.873Z,98235.44
2023-03-20T05:38:34.095Z,98077.06
2023-03-20T05:41:34.538Z,98242.78
2023-03-20T05:44:41.167Z,98210.38
2023-03-20T05:47:45.471Z,98117.63
2023-03-20T05:51:00.469Z,98041.81
2023-03-20T05:53:56.802Z,98250.50
2023-03-20T05:56:51.553Z,98249.78
2023-03-20T05:59:47.204Z,98246.09
2023-03-20T06:02:51.502Z,98028.97
2023-03-20T06:05:57.093Z,98064.69
2023-03-20T06:08:42.751Z,98264.75
2023-03-20T06:11:28.475Z,98240.84
2023-03-20T06:14:14.345Z,98062.56
2023-03-20T06:17:03.434Z,98301.25
2023-03-20T06:19:49.540Z,98265.25
2023-03-20T06:22:35.214Z,98255.34
2023-03-20T06:25:22.363Z,98230.59
2023-03-20T06:28:08.243Z,98253.75
2023-03-20T06:30:54.533Z,98237.19
2023-03-20T06:33:44.838Z,98258.31
2023-03-20T06:36:31.671Z,98098.94
2023-03-20T06:39:27.762Z,98250.16
2023-03-20T06:42:16.089Z,98073.50
2023-03-20T06:45:07.677Z,98274.69
2023-03-20T06:48:12.008Z,98265.56
2023-03-20T06:51:01.648Z,98279.97
2023-03-20T06:53:54.227Z,98206.34
2023-03-20T06:56:45.098Z,98270.38
2023-03-20T06:59:31.526Z,98120.94
2023-03-20T07:02:18.010Z,98259.00
2023-03-20T07:05:03.780Z,98065.03
2023-03-20T07:07:50.599Z,98167.78
2023-03-20T07:10:37.541Z,98272.25
2023-03-20T07:17:45.768Z,98284.94
2023-03-20T07:21:09.870Z,98090.97
2023-03-20T07:24:04.938Z,98279.97
2023-03-20T07:26:56.501Z,98261.38
2023-03-20T07:29:51.203Z,98100.72
2023-03-20T07:32:38.087Z,98263.84
2023-03-20T07:35:24.506Z,98239.78
2023-03-20T07:38:09.754Z,98247.72
2023-03-20T07:41:04.929Z,98247.22
2023-03-20T07:43:52.602Z,98257.19
2023-03-20T07:46:57.256Z,98267.06
2023-03-20T07:49:42.714Z,98247.44
2023-03-20T07:52:28.768Z,98259.25
2023-03-20T07:55:18.293Z,98080.59
2023-03-20T07:58:04.687Z,98263.75
2023-03-20T08:00:50.169Z,98216.91
2023-03-20T08:03:35.484Z,98283.66
2023-03-20T08:06:21.210Z,98259.41
2023-03-20T08:09:07.142Z,98249.13
2023-03-20T08:11:52.678Z,98257.56
2023-03-20T08:14:39.835Z,98202.09
2023-03-20T08:17:25.539Z,98262.00
2023-03-20T08:20:14.272Z,98223.97
2023-03-20T08:22:59.767Z,98253.88
2023-03-20T08:25:49.761Z,98253.50
2023-03-20T08:28:47.153Z,98263.09
2023-03-20T08:31:34.148Z,98266.69
2023-03-20T08:34:19.214Z,98086.03
2023-03-20T08:37:05.439Z,98266.28
2023-03-20T08:39:50.850Z,98086.41
2023-03-20T08:42:36.227Z,98274.66
2023-03-20T08:45:26.050Z,98265.81
2023-03-20T08:48:11.669Z,98255.09
2023-03-20T08:50:57.245Z,98252.53
2023-03-20T08:53:42.704Z,98253.56
2023-03-20T08:56:31.190Z,98087.34
2023-03-20T08:59:16.687Z,98241.72
2023-03-20T09:02:02.163Z,98247.03
2023-03-20T09:04:47.481Z,98238.34
2023-03-20T09:07:33.028Z,98057.13
2023-03-20T09:10:18.767Z,98237.50
2023-03-20T09:13:19.627Z,98251.50
2023-03-20T09:16:12.554Z,98270.78
2023-03-20T09:18:59.161Z,98240.66
2023-03-20T09:21:44.943Z,98237.28
2023-03-20T09:24:31.980Z,98240.31
2023-03-20T09:27:17.741Z,98052.34
2023-03-20T09:30:03.739Z,98198.09
2023-03-20T09:32:50.966Z,98230.44
2023-03-20T09:35:36.808Z,98113.31
2023-03-20T09:38:22.683Z,98147.63
2023-03-20T09:41:20.012Z,98232.41
2023-03-20T09:44:08.347Z,98229.53
2023-03-20T09:47:24.612Z,98228.72
2023-03-20T09:50:34.586Z,98223.81
2023-03-20T09:53:36.391Z,98220.38
2023-03-20T09:56:25.846Z,98214.44
2023-03-20T09:59:16.138Z,98173.50
2023-03-20T10:02:29.976Z,98208.19
2023-03-20T10:05:24.307Z,98190.78
2023-03-20T10:08:16.877Z,98226.50
2023-03-20T10:11:23.037Z,98220.19
2023-03-20T10:14:24.128Z,98210.16
2023-03-20T10:17:59.657Z,98203.06
2023-03-20T10:21:07.083Z,98184.41
2023-03-20T10:24:03.427Z,98197.56
2023-03-20T10:26:53.297Z,98198.31
2023-03-20T10:29:59.937Z,98217.19
2023-03-20T10:32:58.354Z,98188.81
2023-03-20T10:35:52.736Z,98180.34
2023-03-20T10:38:44.361Z,98199.03
2023-03-20T10:41:35.236Z,98175.91
2023-03-20T10:44:35.423Z,98189.31
2023-03-20T10:47:24.681Z,98145.75
2023-03-20T10:50:23.995Z,98173.16
2023-03-20T10:53:24.405Z,98109.50
2023-03-20T10:56:23.017Z,98184.81
2023-03-20T10:59:26.372Z,98189.47
2023-03-20T11:02:13.751Z,98157.84
2023-03-20T11:05:00.994Z,97999.28
2023-03-20T11:07:50.079Z,98151.63
2023-03-20T11:10:37.859Z,98165.03
2023-03-20T11:13:30.192Z,98161.19
2023-03-20T11:16:19.772Z,98163.81
2023-03-20T11:19:08.612Z,98151.09
2023-03-20T11:21:58.239Z,98144.06
2023-03-20T11:24:51.530Z,98164.59
2023-03-20T11:27:37.378Z,98142.88
2023-03-20T11:30:23.145Z,98149.91
2023-03-20T11:33:09.016Z,98139.31
2023-03-20T11:35:57.077Z,98064.91
2023-03-20T11:38:46.841Z,97982.75
2023-03-20T11:41:33.558Z,98122.63
2023-03-20T11:44:36.711Z,98130.19
2023-03-20T11:47:26.690Z,97960.66
2023-03-20T11:50:26.486Z,98112.00
2023-03-20T11:53:26.392Z,98115.69
2023-03-20T11:56:13.644Z,98121.50
2023-03-20T11:59:02.038Z,98098.22
2023-03-20T12:01:53.996Z,98080.28
2023-03-20T12:04:47.557Z,98106.13
2023-03-20T12:07:37.183Z,98081.28
2023-03-20T12:10:23.071Z,98092.22
2023-03-20T12:13:19.692Z,98067.72
2023-03-20T12:16:13.076Z,98033.31
2023-03-20T12:19:03.344Z,98098.44
2023-03-20T12:22:16.730Z,98085.94
2023-03-20T12:25:16.918Z,97977.78
2023-03-20T12:28:13.828Z,98090.78
2023-03-20T12:31:09.619Z,98119.53
2023-03-20T12:34:06.465Z,98090.91
2023-03-20T12:36:53.279Z,98084.97
2023-03-20T12:39:54.820Z,97962.03
2023-03-20T12:43:13.624Z,98071.88
2023-03-20T12:46:22.422Z,98104.63
2023-03-20T12:53:08.299Z,98068.72
2023-03-20T12:56:01.642Z,98023.63
2023-03-20T12:59:23.731Z,98055.13
2023-03-20T13:02:44.841Z,98057.28
2023-03-20T13:05:46.386Z,97995.22
2023-03-20T13:08:44.121Z,98080.59
2023-03-20T13:11:33.215Z,98063.00
2023-03-20T13:14:31.639Z,97933.94
2023-03-20T13:17:29.296Z,98051.72
2023-03-20T13:20:32.327Z,98028.47
2023-03-20T13:23:27.357Z,98048.09
2023-03-20T13:26:19.694Z,98045.66
2023-03-20T13:29:22.012Z,97889.88
2023-03-20T13:32:39.782Z,98033.50
2023-03-20T13:35:53.160Z,98029.38
2023-03-20T13:38:46.108Z,98010.81
2023-03-20T13:41:34.004Z,98023.53
2023-03-20T13:44:22.868Z,97857.63
2023-03-20T13:47:13.438Z,98018.44
2023-03-20T13:50:47.141Z,98017.19
2023-03-20T13:53:32.440Z,97844.31
2023-03-20T13:56:32.782Z,98015.38
2023-03-20T13:59:42.086Z,98020.34
2023-03-20T14:02:31.113Z,98017.78
2023-03-20T14:05:22.859Z,98036.09
2023-03-20T14:08:22.394Z,98009.63
2023-03-20T14:11:07.757Z,98022.34
2023-03-20T14:14:08.308Z,98008.19
2023-03-20T14:17:08.815Z,97981.06
2023-03-20T14:19:56.287Z,97938.22
2023-03-20T14:22:42.912Z,97868.13
2023-03-20T14:25:38.692Z,97999.72
2023-03-20T14:28:28.974Z,97840.91
2023-03-20T14:31:34.315Z,97998.91
2023-03-20T14:34:24.746Z,98010.06
2023-03-20T14:37:27.130Z,97943.34
2023-03-20T14:40:36.746Z,98007.75
2023-03-20T14:43:58.869Z,98009.72
2023-03-20T14:47:07.538Z,97854.25
2023-03-20T14:49:59.445Z,98017.38
2023-03-20T14:52:45.323Z,98005.34
2023-03-20T14:55:35.422Z,97844.56
2023-03-20T14:58:58.240Z,98000.78
2023-03-20T15:01:53.140Z,98028.69
2023-03-20T15:04:42.156Z,97989.38
2023-03-20T15:07:30.615Z,97999.06
2023-03-20T15:10:19.383Z,97941.19
2023-03-20T15:13:07.793Z,97973.66
2023-03-20T15:15:56.360Z,97949.88
2023-03-20T15:18:50.975Z,98000.66
2023-03-20T15:21:38.728Z,98004.91
2023-03-20T15:24:29.452Z,97992.06
2023-03-20T15:27:14.980Z,97954.50
2023-03-20T15:30:02.685Z,97937.06
2023-03-20T15:32:55.371Z,97944.69
2023-03-20T15:35:41.496Z,98005.41
2023-03-20T15:38:33.907Z,97838.28
2023-03-20T15:41:32.035Z,98028.94
2023-03-20T15:44:26.270Z,97985.06
2023-03-20T15:47:17.273Z,97842.28
2023-03-20T15:50:04.638Z,97963.75
2023-03-20T15:52:54.236Z,97938.91
2023-03-20T15:55:39.881Z,97947.88
2023-03-20T15:58:27.307Z,97918.91
2023-03-20T16:01:21.455Z,98006.91
2023-03-20T16:04:09.814Z,97966.03
2023-03-20T16:06:58.963Z,97986.16
2023-03-20T16:09:44.840Z,97852.81
2023-03-20T16:12:30.717Z,97985.78
2023-03-20T16:15:19.883Z,97864.91
2023-03-20T16:18:07.112Z,98000.09
2023-03-20T16:21:03.866Z,97994.78
2023-03-20T16:23:53.550Z,97884.50
2023-03-20T16:26:43.416Z,98007.72
2023-03-20T16:29:30.484Z,98053.06
2023-03-20T16:32:21.549Z,97948.72
2023-03-20T16:35:19.042Z,98044.47
2023-03-20T16:38:30.327Z,97907.25
2023-03-20T16:41:32.135Z,98052.31
2023-03-20T16:44:23.312Z,98007.59
2023-03-20T16:47:23.415Z,98036.44
2023-03-20T16:50:24.092Z,98011.22
2023-03-20T16:53:16.392Z,97903.28
2023-03-20T16:56:04.838Z,97875.63
2023-03-20T16:58:50.761Z,97826.75
2023-03-20T17:01:43.161Z,97899.09
2023-03-20T17:04:28.740Z,98045.97
2023-03-20T17:07:23.870Z,98054.06
2023-03-20T17:10:18.995Z,98043.88
2023-03-20T17:13:06.416Z,97904.41
2023-03-20T17:15:52.274Z,98049.66
2023-03-20T17:18:37.910Z,98012.06
2023-03-20T17:21:23.640Z,98077.91
2023-03-20T17:24:10.322Z,97916.75
2023-03-20T17:26:56.507Z,98008.63
2023-03-20T17:29:42.634Z,97955.50
2023-03-20T17:32:28.122Z,98027.38
2023-03-20T17:35:13.663Z,98034.59
2023-03-20T17:37:59.571Z,98013.94
2023-03-20T17:40:46.038Z,97985.97
2023-03-20T17:43:31.531Z,97996.00
2023-03-20T17:46:29.188Z,97989.69
2023-03-20T17:49:17.242Z,97997.28
2023-03-20T17:52:03.017Z,98036.44
2023-03-20T17:54:48.946Z,98071.69
2023-03-20T17:57:37.032Z,97971.22
2023-03-20T18:00:24.757Z,98053.41
2023-03-20T18:03:10.552Z,97919.38
2023-03-20T18:05:57.149Z,97890.69
2023-03-20T18:08:42.774Z,98017.31
2023-03-20T18:11:28.788Z,98092.22
2023-03-20T18:14:18.219Z,97996.88
2023-03-20T18:17:04.940Z,98049.56
2023-03-20T18:19:50.470Z,97920.31
2023-03-20T18:22:35.715Z,97912.56
2023-03-20T18:25:22.410Z,98030.47
2023-03-20T18:28:18.447Z,97910.22
2023-03-20T18:31:04.293Z,98042.25
2023-03-20T18:33:51.597Z,98066.78
2023-03-20T18:36:37.479Z,97869.06
2023-03-20T18:39:24.541Z,97895.00
2023-03-20T18:42:09.914Z,98066.00
2023-03-20T18:44:55.621Z,98050.22
2023-03-20T18:47:41.496Z,98069.22
2023-03-20T18:50:28.945Z,98072.13
2023-03-20T18:53:14.811Z,98062.94
2023-03-20T18:56:01.132Z,97983.03
2023-03-20T18:58:47.832Z,97892.19
2023-03-20T19:01:34.556Z,98061.38
2023-03-20T19:04:20.057Z,98021.66
2023-03-20T19:07:05.799Z,97905.69
2023-03-20T19:09:51.210Z,97902.31
2023-03-20T19:12:37.173Z,98020.34
2023-03-20T19:15:24.699Z,97952.09
2023-03-20T19:18:38.831Z,98079.06
2023-03-20T19:21:28.794Z,97896.03
2023-03-20T19:24:14.548Z,98060.75
2023-03-20T19:26:59.996Z,98085.84
2023-03-20T19:29:46.818Z,98074.41
2023-03-20T19:32:32.710Z,98061.50
2023-03-20T19:35:50.418Z,97897.81
2023-03-20T19:38:23.995Z,98075.84
2023-03-20T19:41:09.740Z,97906.44
2023-03-20T19:43:57.701Z,98034.88
2023-03-20T19:46:43.377Z,98072.56
2023-03-20T19:49:32.979Z,98066.72
2023-03-20T19:52:28.748Z,97981.75
2023-03-20T19:55:14.258Z,97928.81
2023-03-20T19:58:00.808Z,97950.19
2023-03-20T20:00:59.009Z,97970.81
2023-03-20T20:03:45.764Z,97936.22
2023-03-20T20:06:32.999Z,98042.66
2023-03-20T20:09:18.860Z,98018.41
2023-03-20T20:12:04.535Z,98039.44
2023-03-20T20:14:49.969Z,98086.38
2023-03-20T20:17:36.728Z,97898.75
2023-03-20T20:20:25.606Z,98082.38
2023-03-20T20:23:13.652Z,97932.75
2023-03-20T20:25:59.664Z,98080.91
2023-03-20T20:28:45.393Z,98082.56
2023-03-20T20:31:31.606Z,97917.03
2023-03-20T20:40:30.613Z,98081.41
2023-03-20T20:43:34.813Z,98051.16
2023-03-20T20:46:23.291Z,97937.38
2023-03-20T20:49:19.080Z,97901.63
2023-03-20T20:52:06.080Z,98063.34
2023-03-20T20:54:51.540Z,97905.00
2023-03-20T20:57:37.057Z,98089.16
2023-03-20T21:00:41.227Z,98075.41
2023-03-20T21:03:31.230Z,97931.19
2023-03-20T21:06:16.653Z,98037.53
2023-03-20T21:09:02.554Z,98068.25
2023-03-20T21:11:48.730Z,98061.91
2023-03-20T21:14:34.255Z,97908.47
2023-03-20T21:17:19.474Z,98090.03
2023-03-20T21:20:05.410Z,97989.44
2023-03-20T21:22:50.942Z,98045.78
2023-03-20T21:25:40.977Z,97879.63
2023-03-20T21:28:27.321Z,98027.72
2023-03-20T21:31:26.193Z,97889.50
2023-03-20T21:34:13.733Z,98028.38
2023-03-20T21:37:02.211Z,98057.41
2023-03-20T21:40:09.194Z,97869.69
2023-03-20T21:42:54.937Z,98048.13
2023-03-20T22:01:49.418Z,98065.97
2023-03-20T22:05:18.051Z,97881.56
2023-03-20T22:14:26.803Z,97869.38
2023-03-20T22:29:44.032Z,97908.63
2023-03-20T22:32:47.736Z,97993.59
2023-03-20T22:36:13.725Z,98060.59
2023-03-20T22:39:09.737Z,97888.41
2023-03-20T22:44:58.985Z,97896.31
2023-03-20T22:47:40.603Z,98071.59
2023-03-20T22:50:26.166Z,98063.13
2023-03-20T22:53:11.821Z,98077.88
2023-03-20T22:55:56.994Z,97911.59
2023-03-20T22:58:42.612Z,98044.63
2023-03-20T23:01:28.034Z,97901.47
2023-03-20T23:04:13.756Z,98080.94
2023-03-20T23:06:59.259Z,97940.50
2023-03-20T23:09:48.178Z,97911.72
2023-03-20T23:12:33.670Z,98095.88
2023-03-20T23:15:19.026Z,98075.41
2023-03-20T23:18:05.244Z,97915.94
2023-03-20T23:20:56.574Z,98077.03
2023-03-20T23:23:42.439Z,97893.44
2023-03-20T23:26:27.751Z,98066.63
2023-03-20T23:29:13.202Z,97925.97
2023-03-20T23:31:58.586Z,98075.72
2023-03-20T23:34:43.908Z,97994.59
2023-03-20T23:37:29.284Z,98025.47
2023-03-20T23:40:14.670Z,97883.34
2023-03-20T23:43:00.253Z,97878.34
2023-03-20T23:45:46.327Z,98075.84
2023-03-20T23:48:32.583Z,97886.94
2023-03-20T23:51:18.014Z,97910.69
2023-03-20T23:54:03.467Z,98061.41
2023-03-20T23:56:49.106Z,97913.63
2023-03-20T23:59:34.499Z,97912.16
